Aviation Digital Data Service (ADDS)

Output produced by METARs form (1400 UTC 16 August 2022)
found at http://aviationweather.gov/metar/data/
 
LFBL 161330Z AUTO 02004KT 340V050 9999 ///TCU 22/16 Q1009 TEMPO 28015G25KT 2000 TSRA BKN060CB
TAF LFBL 161100Z 1612/1712 12010KT CAVOK 
     PROB40 
     TEMPO 1612/1622 4000 SHRA BKN060TCU 
     PROB40 
     TEMPO 1612/1622 28015G25KT 2000 TSRA BKN060CB 
     BECMG 1618/1620 22005KT 
     PROB40 
     TEMPO 1704/1708 BKN010